sensor_id;sensor_type;location;lat;lon;timestamp;P1;durP1;ratioP1;P2;durP2;ratioP2
46713;SDS011;32445;51.376;10.874;2022-08-27T00:00:32;9.48;;;8.60;;
46713;SDS011;32445;51.376;10.874;2022-08-27T00:03:33;12.40;;;10.07;;
46713;SDS011;32445;51.376;10.874;2022-08-27T00:06:34;17.10;;;9.73;;
46713;SDS011;32445;51.376;10.874;2022-08-27T00:09:35;14.35;;;11.32;;
46713;SDS011;32445;51.376;10.874;2022-08-27T00:12:37;11.30;;;9.95;;
46713;SDS011;32445;51.376;10.874;2022-08-27T00:15:37;18.47;;;10.63;;
46713;SDS011;32445;51.376;10.874;2022-08-27T00:18:38;10.77;;;9.70;;
46713;SDS011;32445;51.376;10.874;2022-08-27T00:21:39;12.27;;;10.98;;
46713;SDS011;32445;51.376;10.874;2022-08-27T00:24:40;12.40;;;10.93;;
46713;SDS011;32445;51.376;10.874;2022-08-27T00:27:40;14.53;;;11.33;;
46713;SDS011;32445;51.376;10.874;2022-08-27T00:30:41;14.97;;;11.53;;
46713;SDS011;32445;51.376;10.874;2022-08-27T00:33:41;15.27;;;13.53;;
46713;SDS011;32445;51.376;10.874;2022-08-27T00:36:42;18.48;;;16.70;;
46713;SDS011;32445;51.376;10.874;2022-08-27T00:39:42;21.90;;;19.30;;
46713;SDS011;32445;51.376;10.874;2022-08-27T00:42:43;21.97;;;17.23;;
46713;SDS011;32445;51.376;10.874;2022-08-27T00:45:44;24.55;;;21.58;;
46713;SDS011;32445;51.376;10.874;2022-08-27T00:48:45;37.20;;;28.33;;
46713;SDS011;32445;51.376;10.874;2022-08-27T00:54:51;21.05;;;18.73;;
46713;SDS011;32445;51.376;10.874;2022-08-27T00:58:03;25.13;;;21.85;;
46713;SDS011;32445;51.376;10.874;2022-08-27T01:01:06;28.45;;;25.25;;
46713;SDS011;32445;51.376;10.874;2022-08-27T01:04:09;39.95;;;31.75;;
46713;SDS011;32445;51.376;10.874;2022-08-27T01:07:09;38.20;;;31.20;;
46713;SDS011;32445;51.376;10.874;2022-08-27T01:10:11;36.75;;;30.92;;
46713;SDS011;32445;51.376;10.874;2022-08-27T01:13:15;32.05;;;28.67;;
46713;SDS011;32445;51.376;10.874;2022-08-27T01:16:20;32.58;;;28.13;;
46713;SDS011;32445;51.376;10.874;2022-08-27T01:23:09;35.67;;;31.17;;
46713;SDS011;32445;51.376;10.874;2022-08-27T01:26:17;31.88;;;28.77;;
46713;SDS011;32445;51.376;10.874;2022-08-27T01:29:17;39.23;;;29.80;;
46713;SDS011;32445;51.376;10.874;2022-08-27T01:32:26;29.42;;;23.63;;
46713;SDS011;32445;51.376;10.874;2022-08-27T01:35:28;32.05;;;27.08;;
46713;SDS011;32445;51.376;10.874;2022-08-27T01:38:28;29.43;;;26.30;;
46713;SDS011;32445;51.376;10.874;2022-08-27T01:41:30;24.10;;;22.08;;
46713;SDS011;32445;51.376;10.874;2022-08-27T01:44:40;28.27;;;22.97;;
46713;SDS011;32445;51.376;10.874;2022-08-27T01:47:41;27.15;;;21.40;;
46713;SDS011;32445;51.376;10.874;2022-08-27T01:50:42;25.23;;;22.73;;
46713;SDS011;32445;51.376;10.874;2022-08-27T01:53:43;23.23;;;21.05;;
46713;SDS011;32445;51.376;10.874;2022-08-27T01:56:43;24.50;;;21.23;;
46713;SDS011;32445;51.376;10.874;2022-08-27T01:59:43;26.03;;;20.17;;
46713;SDS011;32445;51.376;10.874;2022-08-27T02:02:44;20.92;;;17.75;;
46713;SDS011;32445;51.376;10.874;2022-08-27T02:05:46;20.30;;;18.30;;
46713;SDS011;32445;51.376;10.874;2022-08-27T02:08:47;19.90;;;17.70;;
46713;SDS011;32445;51.376;10.874;2022-08-27T02:11:48;20.30;;;16.53;;
46713;SDS011;32445;51.376;10.874;2022-08-27T02:14:48;16.10;;;14.60;;
46713;SDS011;32445;51.376;10.874;2022-08-27T02:17:49;15.87;;;14.43;;
46713;SDS011;32445;51.376;10.874;2022-08-27T02:20:51;16.50;;;15.05;;
46713;SDS011;32445;51.376;10.874;2022-08-27T02:23:51;15.80;;;14.60;;
46713;SDS011;32445;51.376;10.874;2022-08-27T02:26:54;15.15;;;12.30;;
46713;SDS011;32445;51.376;10.874;2022-08-27T02:29:54;14.65;;;13.38;;
46713;SDS011;32445;51.376;10.874;2022-08-27T02:32:55;12.07;;;11.03;;
46713;SDS011;32445;51.376;10.874;2022-08-27T02:35:55;13.50;;;12.20;;
46713;SDS011;32445;51.376;10.874;2022-08-27T02:38:55;15.83;;;14.33;;
46713;SDS011;32445;51.376;10.874;2022-08-27T02:41:56;13.63;;;12.27;;
46713;SDS011;32445;51.376;10.874;2022-08-27T02:44:56;13.03;;;11.43;;
46713;SDS011;32445;51.376;10.874;2022-08-27T02:47:56;10.87;;;9.83;;
46713;SDS011;32445;51.376;10.874;2022-08-27T02:50:57;19.00;;;12.33;;
46713;SDS011;32445;51.376;10.874;2022-08-27T02:53:57;12.30;;;10.77;;
46713;SDS011;32445;51.376;10.874;2022-08-27T02:56:57;10.83;;;9.83;;
46713;SDS011;32445;51.376;10.874;2022-08-27T02:59:58;11.93;;;10.83;;
46713;SDS011;32445;51.376;10.874;2022-08-27T03:02:58;12.33;;;11.13;;
46713;SDS011;32445;51.376;10.874;2022-08-27T03:05:58;14.63;;;13.20;;
46713;SDS011;32445;51.376;10.874;2022-08-27T03:08:59;13.93;;;12.50;;
46713;SDS011;32445;51.376;10.874;2022-08-27T03:11:59;15.00;;;13.43;;
46713;SDS011;32445;51.376;10.874;2022-08-27T03:15:08;12.32;;;11.30;;
46713;SDS011;32445;51.376;10.874;2022-08-27T03:18:10;13.05;;;11.65;;
46713;SDS011;32445;51.376;10.874;2022-08-27T03:21:17;11.93;;;10.88;;
46713;SDS011;32445;51.376;10.874;2022-08-27T03:24:19;15.60;;;11.55;;
46713;SDS011;32445;51.376;10.874;2022-08-27T03:27:20;12.43;;;11.23;;
46713;SDS011;32445;51.376;10.874;2022-08-27T03:30:21;18.97;;;15.77;;
46713;SDS011;32445;51.376;10.874;2022-08-27T03:33:22;14.80;;;12.30;;
46713;SDS011;32445;51.376;10.874;2022-08-27T03:36:24;17.75;;;15.23;;
46713;SDS011;32445;51.376;10.874;2022-08-27T03:39:25;18.38;;;16.73;;
46713;SDS011;32445;51.376;10.874;2022-08-27T03:42:25;21.07;;;15.47;;
46713;SDS011;32445;51.376;10.874;2022-08-27T03:45:26;19.17;;;14.23;;
46713;SDS011;32445;51.376;10.874;2022-08-27T03:48:26;18.43;;;15.07;;
46713;SDS011;32445;51.376;10.874;2022-08-27T03:51:27;16.17;;;14.50;;
46713;SDS011;32445;51.376;10.874;2022-08-27T03:54:28;17.50;;;14.23;;
46713;SDS011;32445;51.376;10.874;2022-08-27T03:57:30;18.35;;;16.45;;
46713;SDS011;32445;51.376;10.874;2022-08-27T04:00:31;20.48;;;15.88;;
46713;SDS011;32445;51.376;10.874;2022-08-27T04:03:31;17.50;;;15.67;;
46713;SDS011;32445;51.376;10.874;2022-08-27T04:06:33;22.38;;;14.98;;
46713;SDS011;32445;51.376;10.874;2022-08-27T04:12:34;20.07;;;16.67;;
46713;SDS011;32445;51.376;10.874;2022-08-27T04:15:35;25.67;;;16.27;;
46713;SDS011;32445;51.376;10.874;2022-08-27T04:18:35;19.60;;;17.43;;
46713;SDS011;32445;51.376;10.874;2022-08-27T04:21:35;19.17;;;17.23;;
46713;SDS011;32445;51.376;10.874;2022-08-27T04:24:36;22.50;;;17.63;;
46713;SDS011;32445;51.376;10.874;2022-08-27T04:27:36;17.00;;;15.32;;
46713;SDS011;32445;51.376;10.874;2022-08-27T04:30:38;16.63;;;15.10;;
46713;SDS011;32445;51.376;10.874;2022-08-27T04:33:39;23.40;;;16.85;;
46713;SDS011;32445;51.376;10.874;2022-08-27T04:36:40;20.57;;;16.23;;
46713;SDS011;32445;51.376;10.874;2022-08-27T04:39:40;25.97;;;18.43;;
46713;SDS011;32445;51.376;10.874;2022-08-27T04:42:41;16.43;;;14.73;;
46713;SDS011;32445;51.376;10.874;2022-08-27T04:45:42;16.33;;;14.77;;
46713;SDS011;32445;51.376;10.874;2022-08-27T04:48:43;19.13;;;15.52;;
46713;SDS011;32445;51.376;10.874;2022-08-27T04:51:43;16.37;;;14.83;;
46713;SDS011;32445;51.376;10.874;2022-08-27T04:54:45;21.65;;;16.73;;
46713;SDS011;32445;51.376;10.874;2022-08-27T04:57:45;17.53;;;14.83;;
46713;SDS011;32445;51.376;10.874;2022-08-27T05:00:47;15.73;;;14.23;;
46713;SDS011;32445;51.376;10.874;2022-08-27T05:03:49;15.80;;;14.30;;
46713;SDS011;32445;51.376;10.874;2022-08-27T05:06:49;15.70;;;12.80;;
46713;SDS011;32445;51.376;10.874;2022-08-27T05:09:49;15.93;;;14.33;;
46713;SDS011;32445;51.376;10.874;2022-08-27T05:16:24;15.47;;;13.97;;
46713;SDS011;32445;51.376;10.874;2022-08-27T05:19:20;14.52;;;13.20;;
46713;SDS011;32445;51.376;10.874;2022-08-27T05:22:20;15.93;;;13.10;;
46713;SDS011;32445;51.376;10.874;2022-08-27T05:25:21;12.63;;;11.43;;
46713;SDS011;32445;51.376;10.874;2022-08-27T05:28:23;19.80;;;12.38;;
46713;SDS011;32445;51.376;10.874;2022-08-27T05:31:25;13.82;;;12.55;;
46713;SDS011;32445;51.376;10.874;2022-08-27T05:34:27;13.52;;;12.15;;
46713;SDS011;32445;51.376;10.874;2022-08-27T05:37:28;17.35;;;13.18;;
46713;SDS011;32445;51.376;10.874;2022-08-27T05:40:29;19.60;;;13.53;;
46713;SDS011;32445;51.376;10.874;2022-08-27T05:43:29;12.67;;;11.33;;
46713;SDS011;32445;51.376;10.874;2022-08-27T05:49:31;15.13;;;13.60;;
46713;SDS011;32445;51.376;10.874;2022-08-27T05:52:31;12.87;;;11.57;;
46713;SDS011;32445;51.376;10.874;2022-08-27T05:55:37;14.00;;;12.63;;
46713;SDS011;32445;51.376;10.874;2022-08-27T05:58:39;14.88;;;13.43;;
46713;SDS011;32445;51.376;10.874;2022-08-27T06:01:58;17.52;;;13.55;;
46713;SDS011;32445;51.376;10.874;2022-08-27T06:04:58;14.40;;;12.90;;
46713;SDS011;32445;51.376;10.874;2022-08-27T06:07:59;17.20;;;14.60;;
46713;SDS011;32445;51.376;10.874;2022-08-27T06:10:59;15.10;;;13.80;;
46713;SDS011;32445;51.376;10.874;2022-08-27T06:14:01;15.57;;;13.55;;
46713;SDS011;32445;51.376;10.874;2022-08-27T06:17:01;16.10;;;13.33;;
46713;SDS011;32445;51.376;10.874;2022-08-27T06:20:02;19.17;;;13.60;;
46713;SDS011;32445;51.376;10.874;2022-08-27T06:23:02;15.88;;;13.35;;
46713;SDS011;32445;51.376;10.874;2022-08-27T06:26:06;14.90;;;13.37;;
46713;SDS011;32445;51.376;10.874;2022-08-27T06:29:08;14.65;;;13.25;;
46713;SDS011;32445;51.376;10.874;2022-08-27T06:32:11;17.15;;;13.18;;
46713;SDS011;32445;51.376;10.874;2022-08-27T06:35:13;14.68;;;13.20;;
46713;SDS011;32445;51.376;10.874;2022-08-27T06:38:13;14.37;;;12.63;;
46713;SDS011;32445;51.376;10.874;2022-08-27T06:41:14;15.77;;;13.90;;
46713;SDS011;32445;51.376;10.874;2022-08-27T06:44:18;14.80;;;12.35;;
46713;SDS011;32445;51.376;10.874;2022-08-27T06:47:19;12.63;;;11.38;;
46713;SDS011;32445;51.376;10.874;2022-08-27T06:50:20;13.00;;;11.65;;
46713;SDS011;32445;51.376;10.874;2022-08-27T06:53:20;11.70;;;10.63;;
46713;SDS011;32445;51.376;10.874;2022-08-27T06:56:21;12.25;;;11.05;;
46713;SDS011;32445;51.376;10.874;2022-08-27T07:02:22;10.80;;;9.73;;
46713;SDS011;32445;51.376;10.874;2022-08-27T07:05:23;11.07;;;10.00;;
46713;SDS011;32445;51.376;10.874;2022-08-27T07:08:25;11.57;;;10.50;;
46713;SDS011;32445;51.376;10.874;2022-08-27T07:11:25;13.83;;;10.93;;
46713;SDS011;32445;51.376;10.874;2022-08-27T07:14:28;13.18;;;9.77;;
46713;SDS011;32445;51.376;10.874;2022-08-27T07:17:29;12.18;;;10.50;;
46713;SDS011;32445;51.376;10.874;2022-08-27T07:20:29;13.80;;;9.77;;
46713;SDS011;32445;51.376;10.874;2022-08-27T07:23:30;15.10;;;11.37;;
46713;SDS011;32445;51.376;10.874;2022-08-27T07:26:32;9.65;;;8.85;;
46713;SDS011;32445;51.376;10.874;2022-08-27T07:29:35;10.90;;;9.80;;
46713;SDS011;32445;51.376;10.874;2022-08-27T07:32:35;10.77;;;9.63;;
46713;SDS011;32445;51.376;10.874;2022-08-27T07:35:35;9.83;;;8.87;;
46713;SDS011;32445;51.376;10.874;2022-08-27T07:38:36;9.13;;;8.40;;
46713;SDS011;32445;51.376;10.874;2022-08-27T07:41:36;10.67;;;8.83;;
46713;SDS011;32445;51.376;10.874;2022-08-27T07:44:57;13.23;;;9.43;;
46713;SDS011;32445;51.376;10.874;2022-08-27T07:47:57;11.20;;;8.13;;
46713;SDS011;32445;51.376;10.874;2022-08-27T07:50:57;8.83;;;8.13;;
46713;SDS011;32445;51.376;10.874;2022-08-27T07:53:58;8.37;;;7.50;;
46713;SDS011;32445;51.376;10.874;2022-08-27T07:56:58;8.17;;;7.47;;
46713;SDS011;32445;51.376;10.874;2022-08-27T07:59:59;8.27;;;5.87;;
46713;SDS011;32445;51.376;10.874;2022-08-27T08:02:59;6.17;;;5.57;;
46713;SDS011;32445;51.376;10.874;2022-08-27T08:06:07;5.57;;;5.07;;
46713;SDS011;32445;51.376;10.874;2022-08-27T08:09:10;5.57;;;5.07;;
46713;SDS011;32445;51.376;10.874;2022-08-27T08:12:10;5.43;;;5.03;;
46713;SDS011;32445;51.376;10.874;2022-08-27T08:15:10;5.23;;;4.70;;
46713;SDS011;32445;51.376;10.874;2022-08-27T08:18:11;5.85;;;3.95;;
46713;SDS011;32445;51.376;10.874;2022-08-27T08:21:12;5.22;;;4.55;;
46713;SDS011;32445;51.376;10.874;2022-08-27T08:24:13;6.38;;;4.03;;
46713;SDS011;32445;51.376;10.874;2022-08-27T08:27:14;4.80;;;4.30;;
46713;SDS011;32445;51.376;10.874;2022-08-27T08:30:14;4.37;;;4.07;;
46713;SDS011;32445;51.376;10.874;2022-08-27T08:33:14;3.53;;;3.23;;
46713;SDS011;32445;51.376;10.874;2022-08-27T08:39:17;4.43;;;3.97;;
46713;SDS011;32445;51.376;10.874;2022-08-27T08:42:25;5.43;;;3.92;;
46713;SDS011;32445;51.376;10.874;2022-08-27T08:45:30;3.45;;;3.25;;
46713;SDS011;32445;51.376;10.874;2022-08-27T08:48:33;4.20;;;3.90;;
46713;SDS011;32445;51.376;10.874;2022-08-27T08:51:37;6.25;;;3.80;;
46713;SDS011;32445;51.376;10.874;2022-08-27T08:54:40;4.45;;;3.30;;
46713;SDS011;32445;51.376;10.874;2022-08-27T08:57:44;5.10;;;3.97;;
46713;SDS011;32445;51.376;10.874;2022-08-27T09:00:56;4.97;;;4.47;;
46713;SDS011;32445;51.376;10.874;2022-08-27T09:03:59;6.15;;;4.53;;
46713;SDS011;32445;51.376;10.874;2022-08-27T09:07:05;5.10;;;4.70;;
46713;SDS011;32445;51.376;10.874;2022-08-27T09:10:13;6.47;;;4.95;;
46713;SDS011;32445;51.376;10.874;2022-08-27T09:13:23;7.75;;;6.00;;
46713;SDS011;32445;51.376;10.874;2022-08-27T09:16:27;10.35;;;6.45;;
46713;SDS011;32445;51.376;10.874;2022-08-27T09:19:28;6.78;;;6.28;;
46713;SDS011;32445;51.376;10.874;2022-08-27T09:25:49;8.50;;;5.88;;
46713;SDS011;32445;51.376;10.874;2022-08-27T09:29:00;8.83;;;5.53;;
46713;SDS011;32445;51.376;10.874;2022-08-27T09:32:14;7.80;;;6.55;;
46713;SDS011;32445;51.376;10.874;2022-08-27T09:35:15;7.10;;;5.45;;
46713;SDS011;32445;51.376;10.874;2022-08-27T09:38:22;6.17;;;5.57;;
46713;SDS011;32445;51.376;10.874;2022-08-27T09:41:34;5.72;;;5.22;;
46713;SDS011;32445;51.376;10.874;2022-08-27T09:44:45;5.78;;;5.28;;
46713;SDS011;32445;51.376;10.874;2022-08-27T09:51:08;7.05;;;6.35;;
46713;SDS011;32445;51.376;10.874;2022-08-27T09:57:32;7.82;;;6.25;;
46713;SDS011;32445;51.376;10.874;2022-08-27T10:00:36;6.97;;;6.47;;
46713;SDS011;32445;51.376;10.874;2022-08-27T10:03:38;8.18;;;7.47;;
46713;SDS011;32445;51.376;10.874;2022-08-27T10:06:44;8.27;;;7.67;;
46713;SDS011;32445;51.376;10.874;2022-08-27T10:09:50;7.03;;;6.43;;
46713;SDS011;32445;51.376;10.874;2022-08-27T10:19:45;7.78;;;7.28;;
46713;SDS011;32445;51.376;10.874;2022-08-27T10:23:36;8.98;;;8.20;;
46713;SDS011;32445;51.376;10.874;2022-08-27T10:26:27;9.45;;;8.45;;
46713;SDS011;32445;51.376;10.874;2022-08-27T10:30:00;8.75;;;8.05;;
46713;SDS011;32445;51.376;10.874;2022-08-27T10:36:23;9.32;;;7.70;;
46713;SDS011;32445;51.376;10.874;2022-08-27T10:42:51;9.95;;;6.82;;
46713;SDS011;32445;51.376;10.874;2022-08-27T10:46:24;9.43;;;8.57;;
46713;SDS011;32445;51.376;10.874;2022-08-27T10:49:36;9.93;;;7.57;;
46713;SDS011;32445;51.376;10.874;2022-08-27T10:52:51;8.68;;;7.88;;
46713;SDS011;32445;51.376;10.874;2022-08-27T10:56:22;10.38;;;7.10;;
46713;SDS011;32445;51.376;10.874;2022-08-27T11:03:08;9.68;;;7.88;;
46713;SDS011;32445;51.376;10.874;2022-08-27T11:09:46;8.23;;;7.53;;
46713;SDS011;32445;51.376;10.874;2022-08-27T11:12:48;9.00;;;8.15;;
46713;SDS011;32445;51.376;10.874;2022-08-27T11:15:53;10.80;;;8.05;;
46713;SDS011;32445;51.376;10.874;2022-08-27T11:18:57;10.60;;;9.57;;
46713;SDS011;32445;51.376;10.874;2022-08-27T11:22:23;8.73;;;7.82;;
46713;SDS011;32445;51.376;10.874;2022-08-27T11:28:54;10.50;;;8.02;;
46713;SDS011;32445;51.376;10.874;2022-08-27T11:32:06;13.57;;;8.93;;
46713;SDS011;32445;51.376;10.874;2022-08-27T11:35:18;8.90;;;8.00;;
46713;SDS011;32445;51.376;10.874;2022-08-27T11:41:49;10.40;;;7.10;;
46713;SDS011;32445;51.376;10.874;2022-08-27T11:44:52;7.72;;;6.82;;
46713;SDS011;32445;51.376;10.874;2022-08-27T11:48:13;8.40;;;7.60;;
46713;SDS011;32445;51.376;10.874;2022-08-27T11:51:30;6.85;;;6.15;;
46713;SDS011;32445;51.376;10.874;2022-08-27T11:54:50;9.38;;;7.07;;
46713;SDS011;32445;51.376;10.874;2022-08-27T11:58:02;8.60;;;6.80;;
46713;SDS011;32445;51.376;10.874;2022-08-27T12:07:25;7.88;;;6.72;;
46713;SDS011;32445;51.376;10.874;2022-08-27T12:20:44;8.07;;;5.82;;
46713;SDS011;32445;51.376;10.874;2022-08-27T12:24:35;5.97;;;5.38;;
46713;SDS011;32445;51.376;10.874;2022-08-27T12:30:32;6.07;;;5.05;;
46713;SDS011;32445;51.376;10.874;2022-08-27T12:33:44;5.43;;;4.80;;
46713;SDS011;32445;51.376;10.874;2022-08-27T12:36:47;4.72;;;4.32;;
46713;SDS011;32445;51.376;10.874;2022-08-27T12:39:49;5.47;;;4.15;;
46713;SDS011;32445;51.376;10.874;2022-08-27T12:43:03;4.40;;;3.80;;
46713;SDS011;32445;51.376;10.874;2022-08-27T12:46:07;4.45;;;4.15;;
46713;SDS011;32445;51.376;10.874;2022-08-27T12:49:18;4.35;;;3.95;;
46713;SDS011;32445;51.376;10.874;2022-08-27T12:55:38;5.95;;;4.38;;
46713;SDS011;32445;51.376;10.874;2022-08-27T12:58:57;8.45;;;4.20;;
46713;SDS011;32445;51.376;10.874;2022-08-27T13:02:47;8.13;;;3.80;;
46713;SDS011;32445;51.376;10.874;2022-08-27T13:05:58;6.18;;;3.78;;
46713;SDS011;32445;51.376;10.874;2022-08-27T13:09:05;10.43;;;3.95;;
46713;SDS011;32445;51.376;10.874;2022-08-27T13:12:13;4.40;;;4.00;;
46713;SDS011;32445;51.376;10.874;2022-08-27T13:15:18;6.55;;;5.15;;
46713;SDS011;32445;51.376;10.874;2022-08-27T13:18:18;8.32;;;5.00;;
46713;SDS011;32445;51.376;10.874;2022-08-27T13:21:23;7.70;;;5.10;;
46713;SDS011;32445;51.376;10.874;2022-08-27T13:30:53;10.07;;;5.07;;
46713;SDS011;32445;51.376;10.874;2022-08-27T13:33:54;4.82;;;4.35;;
46713;SDS011;32445;51.376;10.874;2022-08-27T13:37:00;10.40;;;4.63;;
46713;SDS011;32445;51.376;10.874;2022-08-27T13:40:04;4.70;;;4.15;;
46713;SDS011;32445;51.376;10.874;2022-08-27T13:43:07;8.15;;;4.78;;
46713;SDS011;32445;51.376;10.874;2022-08-27T13:46:21;6.40;;;4.07;;
46713;SDS011;32445;51.376;10.874;2022-08-27T13:49:31;12.25;;;4.80;;
46713;SDS011;32445;51.376;10.874;2022-08-27T13:52:36;5.05;;;4.60;;
46713;SDS011;32445;51.376;10.874;2022-08-27T13:55:57;5.88;;;4.68;;
46713;SDS011;32445;51.376;10.874;2022-08-27T13:59:11;8.93;;;4.30;;
46713;SDS011;32445;51.376;10.874;2022-08-27T14:02:25;9.05;;;5.05;;
46713;SDS011;32445;51.376;10.874;2022-08-27T14:05:28;10.15;;;5.47;;
46713;SDS011;32445;51.376;10.874;2022-08-27T14:08:33;5.95;;;4.97;;
46713;SDS011;32445;51.376;10.874;2022-08-27T14:11:37;6.65;;;4.57;;
46713;SDS011;32445;51.376;10.874;2022-08-27T14:14:39;9.53;;;5.63;;
46713;SDS011;32445;51.376;10.874;2022-08-27T14:17:40;6.65;;;4.22;;
46713;SDS011;32445;51.376;10.874;2022-08-27T14:20:44;5.45;;;3.75;;
46713;SDS011;32445;51.376;10.874;2022-08-27T14:23:45;8.00;;;4.57;;
46713;SDS011;32445;51.376;10.874;2022-08-27T14:26:50;8.85;;;4.65;;
46713;SDS011;32445;51.376;10.874;2022-08-27T14:29:51;8.73;;;5.03;;
46713;SDS011;32445;51.376;10.874;2022-08-27T14:32:52;10.50;;;4.88;;
46713;SDS011;32445;51.376;10.874;2022-08-27T14:35:52;9.63;;;5.65;;
46713;SDS011;32445;51.376;10.874;2022-08-27T14:38:53;8.98;;;5.57;;
46713;SDS011;32445;51.376;10.874;2022-08-27T14:44:54;24.00;;;5.47;;
46713;SDS011;32445;51.376;10.874;2022-08-27T14:47:55;7.00;;;5.15;;
46713;SDS011;32445;51.376;10.874;2022-08-27T14:50:56;6.07;;;4.43;;
46713;SDS011;32445;51.376;10.874;2022-08-27T14:53:57;5.10;;;4.68;;
46713;SDS011;32445;51.376;10.874;2022-08-27T14:56:58;6.13;;;5.53;;
46713;SDS011;32445;51.376;10.874;2022-08-27T14:59:58;6.03;;;4.10;;
46713;SDS011;32445;51.376;10.874;2022-08-27T15:02:59;7.60;;;4.90;;
46713;SDS011;32445;51.376;10.874;2022-08-27T15:05:59;8.93;;;5.50;;
46713;SDS011;32445;51.376;10.874;2022-08-27T15:08:59;7.30;;;4.53;;
46713;SDS011;32445;51.376;10.874;2022-08-27T15:12:00;6.30;;;4.53;;
46713;SDS011;32445;51.376;10.874;2022-08-27T15:15:00;5.35;;;4.35;;
46713;SDS011;32445;51.376;10.874;2022-08-27T15:18:00;5.37;;;4.87;;
46713;SDS011;32445;51.376;10.874;2022-08-27T15:21:01;9.43;;;5.37;;
46713;SDS011;32445;51.376;10.874;2022-08-27T15:24:02;11.27;;;5.22;;
46713;SDS011;32445;51.376;10.874;2022-08-27T15:27:05;6.18;;;4.75;;
46713;SDS011;32445;51.376;10.874;2022-08-27T15:30:06;6.90;;;5.07;;
46713;SDS011;32445;51.376;10.874;2022-08-27T15:33:08;7.57;;;4.45;;
46713;SDS011;32445;51.376;10.874;2022-08-27T15:36:09;8.03;;;5.10;;
46713;SDS011;32445;51.376;10.874;2022-08-27T15:39:09;9.03;;;4.77;;
46713;SDS011;32445;51.376;10.874;2022-08-27T15:42:09;5.47;;;4.43;;
46713;SDS011;32445;51.376;10.874;2022-08-27T15:45:11;7.78;;;4.45;;
46713;SDS011;32445;51.376;10.874;2022-08-27T15:48:13;8.23;;;4.38;;
46713;SDS011;32445;51.376;10.874;2022-08-27T15:51:13;7.50;;;5.40;;
46713;SDS011;32445;51.376;10.874;2022-08-27T15:54:15;11.10;;;4.40;;
46713;SDS011;32445;51.376;10.874;2022-08-27T15:57:16;11.70;;;4.47;;
46713;SDS011;32445;51.376;10.874;2022-08-27T16:00:18;5.45;;;4.82;;
46713;SDS011;32445;51.376;10.874;2022-08-27T16:03:21;7.28;;;4.53;;
46713;SDS011;32445;51.376;10.874;2022-08-27T16:06:21;6.33;;;5.73;;
46713;SDS011;32445;51.376;10.874;2022-08-27T16:09:22;6.47;;;4.40;;
46713;SDS011;32445;51.376;10.874;2022-08-27T16:12:22;8.97;;;4.57;;
46713;SDS011;32445;51.376;10.874;2022-08-27T16:15:22;10.30;;;5.03;;
46713;SDS011;32445;51.376;10.874;2022-08-27T16:18:24;13.50;;;4.73;;
46713;SDS011;32445;51.376;10.874;2022-08-27T16:21:27;6.03;;;3.95;;
46713;SDS011;32445;51.376;10.874;2022-08-27T16:24:28;10.95;;;4.63;;
46713;SDS011;32445;51.376;10.874;2022-08-27T16:27:29;12.25;;;5.30;;
46713;SDS011;32445;51.376;10.874;2022-08-27T16:30:30;8.27;;;5.20;;
46713;SDS011;32445;51.376;10.874;2022-08-27T16:33:30;9.47;;;5.37;;
46713;SDS011;32445;51.376;10.874;2022-08-27T16:36:30;12.97;;;4.83;;
46713;SDS011;32445;51.376;10.874;2022-08-27T16:39:32;13.05;;;5.00;;
46713;SDS011;32445;51.376;10.874;2022-08-27T16:42:32;10.53;;;6.17;;
46713;SDS011;32445;51.376;10.874;2022-08-27T16:45:33;10.50;;;4.80;;
46713;SDS011;32445;51.376;10.874;2022-08-27T16:48:33;8.03;;;4.53;;
46713;SDS011;32445;51.376;10.874;2022-08-27T16:51:53;12.13;;;5.75;;
46713;SDS011;32445;51.376;10.874;2022-08-27T16:54:53;12.43;;;5.50;;
46713;SDS011;32445;51.376;10.874;2022-08-27T16:57:55;10.40;;;5.35;;
46713;SDS011;32445;51.376;10.874;2022-08-27T17:00:57;9.40;;;6.30;;
46713;SDS011;32445;51.376;10.874;2022-08-27T17:04:00;12.13;;;6.80;;
46713;SDS011;32445;51.376;10.874;2022-08-27T17:07:01;7.05;;;5.22;;
46713;SDS011;32445;51.376;10.874;2022-08-27T17:10:02;11.27;;;5.80;;
46713;SDS011;32445;51.376;10.874;2022-08-27T17:13:03;7.65;;;5.40;;
46713;SDS011;32445;51.376;10.874;2022-08-27T17:16:08;10.15;;;5.22;;
46713;SDS011;32445;51.376;10.874;2022-08-27T17:19:09;12.77;;;5.63;;
46713;SDS011;32445;51.376;10.874;2022-08-27T17:22:10;13.75;;;5.68;;
46713;SDS011;32445;51.376;10.874;2022-08-27T17:25:11;9.53;;;4.33;;
46713;SDS011;32445;51.376;10.874;2022-08-27T17:28:11;19.97;;;5.30;;
46713;SDS011;32445;51.376;10.874;2022-08-27T17:31:28;13.63;;;4.37;;
46713;SDS011;32445;51.376;10.874;2022-08-27T17:34:31;11.35;;;4.88;;
46713;SDS011;32445;51.376;10.874;2022-08-27T17:37:32;11.55;;;5.68;;
46713;SDS011;32445;51.376;10.874;2022-08-27T17:43:33;16.67;;;4.50;;
46713;SDS011;32445;51.376;10.874;2022-08-27T17:46:34;11.47;;;4.73;;
46713;SDS011;32445;51.376;10.874;2022-08-27T17:49:35;10.60;;;4.60;;
46713;SDS011;32445;51.376;10.874;2022-08-27T17:52:39;9.90;;;4.30;;
46713;SDS011;32445;51.376;10.874;2022-08-27T17:55:39;13.38;;;4.43;;
46713;SDS011;32445;51.376;10.874;2022-08-27T17:58:40;10.63;;;4.50;;
46713;SDS011;32445;51.376;10.874;2022-08-27T18:01:40;6.97;;;3.90;;
46713;SDS011;32445;51.376;10.874;2022-08-27T18:04:40;10.37;;;4.27;;
46713;SDS011;32445;51.376;10.874;2022-08-27T18:07:41;10.47;;;4.93;;
46713;SDS011;32445;51.376;10.874;2022-08-27T18:10:42;6.70;;;3.67;;
46713;SDS011;32445;51.376;10.874;2022-08-27T18:16:46;6.18;;;4.35;;
46713;SDS011;32445;51.376;10.874;2022-08-27T18:19:47;8.43;;;3.63;;
46713;SDS011;32445;51.376;10.874;2022-08-27T18:22:47;7.47;;;4.30;;
46713;SDS011;32445;51.376;10.874;2022-08-27T18:25:48;9.30;;;4.15;;
46713;SDS011;32445;51.376;10.874;2022-08-27T18:28:50;6.38;;;3.65;;
46713;SDS011;32445;51.376;10.874;2022-08-27T18:31:50;7.50;;;3.43;;
46713;SDS011;32445;51.376;10.874;2022-08-27T18:34:51;8.73;;;3.73;;
46713;SDS011;32445;51.376;10.874;2022-08-27T18:37:52;10.77;;;3.47;;
46713;SDS011;32445;51.376;10.874;2022-08-27T18:40:53;10.15;;;4.55;;
46713;SDS011;32445;51.376;10.874;2022-08-27T18:43:54;5.65;;;3.78;;
46713;SDS011;32445;51.376;10.874;2022-08-27T18:46:54;8.20;;;4.23;;
46713;SDS011;32445;51.376;10.874;2022-08-27T18:49:54;6.53;;;3.63;;
46713;SDS011;32445;51.376;10.874;2022-08-27T18:52:56;10.63;;;4.63;;
46713;SDS011;32445;51.376;10.874;2022-08-27T18:55:56;11.57;;;4.37;;
46713;SDS011;32445;51.376;10.874;2022-08-27T18:58:57;10.77;;;4.05;;
46713;SDS011;32445;51.376;10.874;2022-08-27T19:01:57;7.27;;;3.17;;
46713;SDS011;32445;51.376;10.874;2022-08-27T19:04:58;5.63;;;3.47;;
46713;SDS011;32445;51.376;10.874;2022-08-27T19:07:59;9.53;;;3.93;;
46713;SDS011;32445;51.376;10.874;2022-08-27T19:10:59;8.17;;;3.70;;
46713;SDS011;32445;51.376;10.874;2022-08-27T19:13:59;7.33;;;3.90;;
46713;SDS011;32445;51.376;10.874;2022-08-27T19:17:00;9.60;;;3.47;;
46713;SDS011;32445;51.376;10.874;2022-08-27T19:23:03;14.35;;;4.35;;
46713;SDS011;32445;51.376;10.874;2022-08-27T19:26:04;13.10;;;4.50;;
46713;SDS011;32445;51.376;10.874;2022-08-27T19:29:12;7.40;;;3.53;;
46713;SDS011;32445;51.376;10.874;2022-08-27T19:32:13;11.98;;;4.28;;
46713;SDS011;32445;51.376;10.874;2022-08-27T19:35:14;10.77;;;3.53;;